• Join FlightAware (Why Join?)
  • Login
  • US Flag 
10:07PM EST


 

Airport Tracker/Info


-or-


 

Live Flight TrackerFlight Track Log ✈ UAL4431 ✈ 05-Nov-2013 ✈ KCLE - KPBI

Flight Track Log - Related Links

Times and Time Zones

All times are in EST time to prevent confusion due to time zone crossing. See the UAL4431 flight status page for this flight to view local times or setup timezone preferences in your user account.

Time Position Orientation Groundspeed Altitude Reporting Facility
EST Latitude Longitude Course Direction KTS MPH feet Rate Location/Type
08:52AM 41.3931 -81.8756 211° Southwest 154 177 1,700  Level Cleveland Center
08:53AM 41.3819 -81.8822 204° Southwest 148 170 2,300 1,560 Climbing Cleveland Center
08:54AM 41.3500 -81.8942 196° South 179 206 3,400 1,500 Climbing Cleveland Center
08:55AM 41.2925 -81.9206 199° South 207 238 5,000 1,020 Climbing Cleveland Center
08:56AM 40.9815 -81.7935 169° South  Level Estimated
08:56AM 41.2242 -81.9058 171° South 246 283 5,600  Level Cleveland Center
08:57AM 40.8745 -81.7783 208° Southwest  Level Estimated
08:57AM 41.1414 -81.8992 177° South 259 298 7,500  Level Cleveland Center
08:58AM 40.7675 -81.7632 211° Southwest  Level Estimated
08:58AM 41.0731 -81.9397 204° Southwest 267 307 9,600  Level Cleveland Center
08:59AM 41.0031 -81.9814 204° Southwest 272 313 12,100 1,980 Climbing Cleveland Center
09:00AM 40.9272 -82.0256 204° Southwest 293 337 13,700 1,440 Climbing Cleveland Center
09:01AM 40.8472 -82.0836 209° Southwest 319 367 15,100 1,380 Climbing Cleveland Center
09:02AM 40.7778 -82.1350 209° Southwest 334 384 16,400 1,500 Climbing Indianapolis Center
09:03AM 40.6925 -82.1975 209° Southwest 348 400 18,000 1,260 Climbing Indianapolis Center
09:04AM 40.6061 -82.2603 209° Southwest 350 403 19,100 1,200 Climbing Indianapolis Center
09:05AM 40.5028 -82.3358 209° Southwest 359 413 20,600 1,320 Climbing Indianapolis Center
09:06AM 40.4114 -82.4014 209° Southwest 370 426 21,900 1,200 Climbing Indianapolis Center
09:07AM 40.3192 -82.4681 209° Southwest 374 430 23,200 1,260 Climbing Indianapolis Center
09:08AM 40.2222 -82.5367 208° Southwest 378 435 24,600 1,500 Climbing Indianapolis Center
09:09AM 40.1256 -82.5853 201° Southwest 381 438 26,300 1,680 Climbing Indianapolis Center
09:10AM 40.0189 -82.5706 174° South 383 441 28,100 1,680 Climbing Indianapolis Center
09:11AM 39.9156 -82.5569 174° South 374 430 29,800 1,380 Climbing Indianapolis Center
09:12AM 39.8181 -82.5433 174° South 356 410 31,000 540 Climbing Indianapolis Center
09:13AM 39.7117 -82.5289 174° South 377 434 31,000 480 Level Indianapolis Center
09:14AM 39.5764 -82.5100 174° South 403 464 32,000 960 Climbing Indianapolis Center
09:15AM 39.4633 -82.4956 174° South 406 467 33,000 960 Climbing Indianapolis Center
09:16AM 39.3522 -82.4792 173° South 403 464 34,000 960 Climbing Indianapolis Center
09:17AM 39.2331 -82.4631 174° South 401 461 35,000 960 Climbing Indianapolis Center
09:18AM 39.1275 -82.4658 181° South 377 434 36,000 480 Climbing Indianapolis Center
09:19AM 39.0203 -82.4736 183° South 383 441 36,000  Level Indianapolis Center
09:20AM 38.9072 -82.4847 184° South 402 463 36,000  Level Indianapolis Center
09:21AM 38.7900 -82.4953 184° South 418 481 36,000  Level Indianapolis Center
09:22AM 38.6383 -82.4789 175° South 453 521 36,000  Level Indianapolis Center
09:23AM 38.5114 -82.4586 173° South 460 529 36,000  Level Indianapolis Center
09:24AM 38.3842 -82.4400 173° South 460 529 36,000  Level Indianapolis Center
09:25AM 38.2572 -82.4192 173° South 460 529 36,000  Level Indianapolis Center
09:26AM 38.1303 -82.3994 173° South 460 529 36,000  Level Indianapolis Center
09:27AM 37.9981 -82.3789 173° South 454 522 36,000  Level Indianapolis Center
09:28AM 37.8700 -82.3586 173° South 460 529 36,000  Level Indianapolis Center
09:30AM 37.7217 -82.3344 173° South 460 529 36,000  Level Indianapolis Center
09:31AM 37.5950 -82.3142 173° South 457 526 36,000  Level Indianapolis Center
09:32AM 37.4686 -82.2956 173° South 455 524 36,000  Level Indianapolis Center
09:33AM 37.3419 -82.2753 173° South 456 525 36,000  Level Indianapolis Center
09:34AM 37.2150 -82.2561 173° South 457 526 36,000  Level Indianapolis Center
09:35AM 37.0867 -82.2358 173° South 460 529 36,000  Level Indianapolis Center
09:36AM 36.9383 -82.2125 173° South 457 526 36,000  Level Indianapolis Center
09:37AM 36.8111 -82.1936 173° South 456 525 36,000 300 Level Indianapolis Center
09:38AM 36.6847 -82.1742 173° South 455 524 36,700 480 Climbing Indianapolis Center
09:39AM 36.5819 -82.1567 172° South 461 531 37,000 120 Climbing Atlanta Center
09:40AM 36.4439 -82.1367 173° South 461 531 37,000  Level Atlanta Center
09:41AM 36.3164 -82.1192 174° South 467 537 37,000  Level Atlanta Center
09:42AM 36.1847 -82.0992 173° South 467 537 37,000  Level Atlanta Center
09:43AM 36.0550 -82.0792 173° South 467 537 37,000  Level Atlanta Center
09:44AM 35.9214 -82.0592 173° South 480 552 37,000  Level Atlanta Center
09:45AM 35.7917 -82.0394 173° South 480 552 37,000  Level Atlanta Center
09:46AM 35.6642 -82.0219 174° South 480 552 37,000  Level Atlanta Center
09:47AM 35.5344 -82.0022 173° South 480 552 37,000  Level Atlanta Center
09:48AM 35.4172 -81.9847 173° South 480 552 37,000  Level Atlanta Center
09:49AM 35.2897 -81.9675 174° South 475 547 37,000  Level Atlanta Center
09:50AM 35.1622 -81.9503 174° South 475 547 37,000  Level Atlanta Center
09:51AM 35.0325 -81.9333 174° South 470 541 37,000 -60 Level Atlanta Center
09:52AM 34.9075 -81.9492 186° South 458 527 36,900 -300 Descending Atlanta Center
09:53AM 34.7850 -81.9725 189° South 458 527 36,400 -480 Descending Atlanta Center
09:54AM 34.6558 -81.9933 188° South 464 534 36,000 -240 Descending Atlanta Center
09:55AM 34.5311 -82.0167 189° South 464 534 36,000  Level Atlanta Center
09:56AM 34.4103 -82.0397 189° South 458 527 36,000  Level Atlanta Center
09:57AM 34.2856 -82.0603 188° South 458 527 36,000  Level Atlanta Center
09:58AM 34.1564 -82.0833 188° South 465 535 36,000  Level Atlanta Center
09:59AM 34.0336 -82.1011 187° South 465 535 36,000  Level Atlanta Center
10:00AM 33.9044 -82.1192 187° South 465 535 36,000  Level Atlanta Center
10:01AM 33.7753 -82.1344 186° South 465 535 36,000  Level Atlanta Center
10:02AM 33.6461 -82.1497 186° South 465 535 36,000  Level Atlanta Center
10:03AM 33.5192 -82.1700 188° South 465 535 36,000  Level Atlanta Center
10:04AM 33.3919 -82.1878 187° South 465 535 36,000  Level Atlanta Center
10:05AM 33.2608 -82.2028 185° South 465 535 36,000  Level Atlanta Center
10:06AM 33.1358 -82.2206 187° South 465 535 36,000  Level Atlanta Center
10:07AM 32.9353 -82.2467 186° South 471 542 36,000  Level Jacksonville Center
10:08AM 32.8081 -82.2622 186° South 471 542 36,000  Level Jacksonville Center
10:09AM 32.6786 -82.2806 187° South 471 542 36,000  Level Jacksonville Center
10:10AM 32.5514 -82.2961 186° South 466 536 36,000  Level Jacksonville Center
10:11AM 32.4136 -82.3142 186° South 458 527 36,000  Level Jacksonville Center
10:12AM 32.2842 -82.3200 182° South 465 535 36,000  Level Jacksonville Center
10:13AM 32.1631 -82.3208 180° South 470 541 36,000  Level Jacksonville Center
10:14AM 32.0400 -82.3264 182° South 464 534 36,000  Level Jacksonville Center
10:15AM 31.9064 -82.3322 182° South 464 534 36,000  Level Jacksonville Center
10:16AM 31.7667 -82.3378 182° South 464 534 36,000  Level Jacksonville Center
10:17AM 31.6350 -82.3436 182° South 469 540 36,000  Level Jacksonville Center
10:18AM 31.5014 -82.3467 181° South 469 540 36,000  Level Jacksonville Center
10:19AM 31.3742 -82.3547 183° South 475 547 36,000  Level Jacksonville Center
10:20AM 31.2550 -82.3653 184° South 475 547 36,000  Level Jacksonville Center
10:21AM 31.1236 -82.3683 181° South 475 547 36,000  Level Jacksonville Center
10:22AM 30.9942 -82.3739 182° South 475 547 36,000  Level Jacksonville Center
10:23AM 30.8625 -82.3772 181° South 475 547 36,000  Level Jacksonville Center
10:24AM 30.7331 -82.3850 183° South 475 547 36,000  Level Jacksonville Center
10:25AM 30.6039 -82.3906 182° South 475 547 36,000  Level Jacksonville Center
10:26AM 30.4722 -82.3961 182° South 475 547 36,000  Level Jacksonville Center
10:27AM 30.3469 -82.4017 182° South 470 541 36,000 -120 Level Jacksonville Center
10:28AM 30.2175 -82.4047 181° South 470 541 35,800 -540 Descending Jacksonville Center
10:29AM 30.0881 -82.4100 182° South 470 541 35,000 -420 Descending Jacksonville Center
10:30AM 29.9628 -82.4106 180° South 460 529 35,000  Level Jacksonville Center
10:31AM 29.8356 -82.4161 182° South 460 529 35,000  Level Jacksonville Center
10:32AM 29.7061 -82.4217 182° South 460 529 35,000  Level Jacksonville Center
10:33AM 29.5789 -82.4269 182° South 460 529 35,000  Level Jacksonville Center
10:34AM 29.4514 -82.4322 182° South 460 529 35,000  Level Jacksonville Center
10:35AM 29.3242 -82.4353 181° South 460 529 35,000  Level Jacksonville Center
10:36AM 29.1947 -82.4406 182° South 460 529 35,000  Level Jacksonville Center
10:37AM 29.0694 -82.4436 181° South 460 529 35,000  Level Jacksonville Center
10:38AM 28.9422 -82.4253 173° South 460 529 35,000  Level Jacksonville Center
10:39AM 28.8147 -82.4092 174° South 460 529 35,000  Level Jacksonville Center
10:40AM 28.6875 -82.3933 174° South 460 529 35,000  Level Jacksonville Center
10:41AM 28.5642 -82.3797 174° South 460 529 35,000  Level Jacksonville Center
10:42AM 28.4389 -82.3614 173° South 460 529 35,000  Level Jacksonville Center
10:45AM 28.1422 -82.3258 174° South 470 541 35,000  Level Miami Center
10:46AM 28.0178 -82.3056 172° South 460 529 35,000  Level Miami Center
10:47AM 27.8983 -82.2647 163° South 454 522 35,000  Level Miami Center
10:48AM 27.7647 -82.2161 162° South 454 522 35,000 -180 Level Miami Center
10:49AM 27.6494 -82.1756 163° South 448 516 34,700 -780 Descending Miami Center
10:50AM 27.5361 -82.1353 163° South 460 529 33,500 -1,920 Descending Miami Center
10:51AM 27.4042 -82.0917 164° South 453 521 30,900 -2,700 Descending Miami Center
10:52AM 27.2825 -82.0511 163° South 453 521 28,200 -2,700 Descending Miami Center
10:53AM 27.1608 -82.0106 163° South 453 521 25,500 -2,100 Descending Miami Center
10:54AM 27.0597 -81.9758 163° South 448 516 24,000 -1,380 Descending Miami Center
10:56AM 26.8506 -81.8667 155° Southeast 426 490 21,500 -1,380 Descending Miami Center
10:57AM 26.7658 -81.7769 137° Southeast 415 478 19,900 -1,260 Descending Miami Center
10:58AM 26.7003 -81.6814 128° Southeast 408 470 19,000 -480 Descending Miami Center
10:59AM 26.7086 -81.5539 86° East 366 421 19,000 -60 Level Miami Center
11:00AM 26.7422 -81.4203 74° East 367 422 18,900 -660 Descending Miami Center
11:01AM 26.7667 -81.2981 77° East 395 455 17,700 -1,320 Descending Miami Center
11:02AM 26.7956 -81.1781 75° East 395 455 16,300 -1,680 Descending Miami Center
11:03AM 26.8197 -81.0603 77° East 389 448 14,400 -2,160 Descending Miami Center
11:04AM 26.8311 -80.9561 83° East 389 448 12,000 -2,100 Descending Miami Center
11:05AM 26.8322 -80.8375 89° East 366 421 10,200 -1,020 Descending Miami Center
11:06AM 26.8053 -80.7572 111° Southeast 295 339 10,000 -120 Descending Miami Center
11:07AM 26.7678 -80.6722 116° Southeast 290 334 10,000 -720 Level Miami Center
11:08AM 26.7425 -80.5994 111° Southeast 284 327 8,600 -1,620 Descending Miami Center
11:09AM 26.7114 -80.5169 113° Southeast 270 311 6,800 -1,800 Descending Miami Center
11:10AM 26.6961 -80.4514 105° East 255 293 5,000 -1,860 Descending Miami Center
11:11AM 26.6919 -80.3678 93° East 238 274 3,100 -1,500 Descending Miami Center
11:12AM 26.6892 -80.3047 93° East 230 265 2,100 -600 Descending Miami Center
11:13AM 26.6867 -80.2350 92° East 211 243 2,000 -120 Descending Miami Center